createdAt,value
2019-05-20T00:00:53.986Z,12.50
2019-05-20T00:03:24.456Z,12.50
2019-05-20T00:05:54.987Z,12.40
2019-05-20T00:08:25.502Z,12.30
2019-05-20T00:10:55.954Z,12.30
2019-05-20T00:13:26.424Z,12.30
2019-05-20T00:15:56.872Z,12.20
2019-05-20T00:18:27.392Z,12.20
2019-05-20T00:20:57.880Z,12.30
2019-05-20T00:23:28.404Z,12.20
2019-05-20T00:25:58.911Z,12.20
2019-05-20T00:28:29.395Z,12.20
2019-05-20T00:30:59.905Z,12.30
2019-05-20T00:33:30.404Z,12.30
2019-05-20T00:36:00.901Z,12.30
2019-05-20T00:38:31.518Z,12.30
2019-05-20T00:41:02.108Z,12.40
2019-05-20T00:43:32.749Z,12.40
2019-05-20T00:46:03.464Z,12.40
2019-05-20T00:48:34.045Z,12.30
2019-05-20T00:51:04.548Z,12.30
2019-05-20T00:53:35.055Z,12.40
2019-05-20T00:56:05.707Z,12.30
2019-05-20T00:58:36.213Z,12.40
2019-05-20T01:01:06.836Z,12.40
2019-05-20T01:03:37.421Z,12.40
2019-05-20T01:06:07.975Z,12.40
2019-05-20T01:08:38.403Z,12.50
2019-05-20T01:11:08.883Z,12.40
2019-05-20T01:13:39.365Z,12.40
2019-05-20T01:16:11.270Z,12.30
2019-05-20T01:18:41.972Z,12.30
2019-05-20T01:21:12.474Z,12.30
2019-05-20T01:23:42.957Z,12.40
2019-05-20T01:26:13.502Z,12.40
2019-05-20T01:28:44.195Z,12.50
2019-05-20T01:31:14.957Z,12.50
2019-05-20T01:33:45.394Z,12.50
2019-05-20T01:36:16.440Z,12.50
2019-05-20T01:38:46.986Z,12.50
2019-05-20T01:41:17.830Z,12.50
2019-05-20T01:43:48.356Z,12.40
2019-05-20T01:46:18.906Z,12.40
2019-05-20T01:48:49.459Z,12.40
2019-05-20T01:51:19.949Z,12.30
2019-05-20T01:53:50.429Z,12.40
2019-05-20T01:56:21.003Z,12.40
2019-05-20T01:58:51.598Z,12.40
2019-05-20T02:01:22.100Z,12.50
2019-05-20T02:03:52.642Z,12.50
2019-05-20T02:06:23.183Z,12.40
2019-05-20T02:08:53.700Z,12.40
2019-05-20T02:11:24.215Z,12.40
2019-05-20T02:14:01.711Z,12.50
2019-05-20T02:16:32.268Z,12.50
2019-05-20T02:19:03.287Z,12.40
2019-05-20T02:21:33.912Z,12.40
2019-05-20T02:24:04.618Z,12.30
2019-05-20T02:26:35.868Z,12.40
2019-05-20T02:29:06.536Z,12.40
2019-05-20T02:31:37.052Z,12.50
2019-05-20T02:34:07.525Z,12.50
2019-05-20T02:36:38.003Z,12.40
2019-05-20T02:39:08.499Z,12.40
2019-05-20T02:41:39.019Z,12.50
2019-05-20T02:44:09.807Z,12.50
2019-05-20T02:46:40.244Z,12.50
2019-05-20T02:49:10.725Z,12.40
2019-05-20T02:51:41.256Z,12.40
2019-05-20T02:54:11.721Z,12.40
2019-05-20T02:56:42.189Z,12.40
2019-05-20T02:59:12.658Z,12.40
2019-05-20T03:01:43.146Z,12.50
2019-05-20T03:04:13.670Z,12.50
2019-05-20T03:06:46.930Z,12.50
2019-05-20T03:09:17.408Z,12.50
2019-05-20T03:11:47.901Z,12.50
2019-05-20T03:14:18.347Z,12.50
2019-05-20T03:16:48.831Z,12.50
2019-05-20T03:19:19.600Z,12.50
2019-05-20T03:21:50.186Z,12.60
2019-05-20T03:24:20.693Z,12.60
2019-05-20T03:26:51.657Z,12.60
2019-05-20T03:29:22.123Z,12.50
2019-05-20T03:31:52.600Z,12.50
2019-05-20T03:34:43.363Z,12.50
2019-05-20T03:36:55.323Z,12.50
2019-05-20T03:39:25.808Z,12.50
2019-05-20T03:41:56.357Z,12.50
2019-05-20T03:44:26.833Z,12.50
2019-05-20T03:46:57.354Z,12.40
2019-05-20T03:49:27.821Z,12.40
2019-05-20T03:51:58.626Z,12.50
2019-05-20T03:54:29.081Z,12.50
2019-05-20T03:56:59.611Z,12.50
2019-05-20T03:59:30.071Z,12.50
2019-05-20T04:02:00.603Z,12.50
2019-05-20T04:04:31.078Z,12.50
2019-05-20T04:07:01.581Z,12.50
2019-05-20T04:09:32.060Z,12.50
2019-05-20T04:12:02.551Z,12.60
2019-05-20T04:14:33.023Z,12.60
2019-05-20T04:17:03.599Z,12.60
2019-05-20T04:19:34.043Z,12.60
2019-05-20T04:22:04.532Z,12.60
2019-05-20T04:24:35.004Z,12.60
2019-05-20T04:27:05.487Z,12.60
2019-05-20T04:29:35.982Z,12.70
2019-05-20T04:32:06.614Z,12.70
2019-05-20T04:34:37.063Z,12.80
2019-05-20T04:37:07.569Z,12.70
2019-05-20T04:39:38.075Z,12.70
2019-05-20T04:42:08.551Z,12.60
2019-05-20T04:44:39.102Z,12.70
2019-05-20T04:47:09.597Z,12.70
2019-05-20T04:49:40.138Z,12.70
2019-05-20T04:52:10.642Z,12.70
2019-05-20T04:54:41.101Z,12.70
2019-05-20T04:57:11.668Z,12.60
2019-05-20T04:59:42.229Z,12.60
2019-05-20T05:02:12.699Z,12.50
2019-05-20T05:04:43.244Z,12.60
2019-05-20T05:07:13.912Z,12.60
2019-05-20T05:09:44.382Z,12.60
2019-05-20T05:12:15.209Z,12.60
2019-05-20T05:14:45.747Z,12.50
2019-05-20T05:17:16.199Z,12.40
2019-05-20T05:19:46.682Z,12.40
2019-05-20T05:22:17.223Z,12.40
2019-05-20T05:24:47.669Z,12.40
2019-05-20T05:27:18.147Z,12.40
2019-05-20T05:29:48.738Z,12.40
2019-05-20T05:32:38.329Z,12.40
2019-05-20T05:35:08.996Z,12.50
2019-05-20T05:37:39.468Z,12.50
2019-05-20T05:40:11.000Z,12.40
2019-05-20T05:42:41.501Z,12.40
2019-05-20T05:45:13.281Z,12.50
2019-05-20T05:47:44.167Z,12.50
2019-05-20T05:50:14.980Z,12.50
2019-05-20T05:52:45.439Z,12.50
2019-05-20T05:55:15.980Z,12.50
2019-05-20T05:57:46.737Z,12.50
2019-05-20T06:00:18.229Z,12.50
2019-05-20T06:02:48.886Z,12.50
2019-05-20T06:05:22.347Z,12.50
2019-05-20T06:07:52.864Z,12.50
2019-05-20T06:10:23.578Z,12.50
2019-05-20T06:12:54.069Z,12.40
2019-05-20T06:15:24.730Z,12.40
2019-05-20T06:17:55.234Z,12.30
2019-05-20T06:20:25.718Z,12.30
2019-05-20T06:22:56.214Z,12.40
2019-05-20T06:25:26.710Z,12.30
2019-05-20T06:27:57.325Z,12.40
2019-05-20T06:30:41.320Z,12.40
2019-05-20T06:33:12.133Z,12.40
2019-05-20T06:35:42.686Z,12.40
2019-05-20T06:38:18.581Z,12.50
2019-05-20T06:40:49.110Z,12.50
2019-05-20T06:43:19.670Z,12.50
2019-05-20T06:45:50.184Z,12.50
2019-05-20T06:48:20.718Z,12.50
2019-05-20T06:50:51.205Z,12.60
2019-05-20T06:53:21.876Z,12.70
2019-05-20T06:55:52.568Z,12.60
2019-05-20T06:58:23.047Z,12.60
2019-05-20T07:00:53.561Z,12.50
2019-05-20T07:03:24.153Z,12.60
2019-05-20T07:05:54.884Z,12.60
2019-05-20T07:08:25.657Z,12.60
2019-05-20T07:10:56.338Z,12.70
2019-05-20T07:13:26.847Z,12.70
2019-05-20T07:15:57.462Z,12.70
2019-05-20T07:18:28.311Z,12.70
2019-05-20T07:20:58.926Z,12.80
2019-05-20T07:23:29.605Z,12.80
2019-05-20T07:26:00.069Z,12.80
2019-05-20T07:28:30.743Z,12.90
2019-05-20T07:31:01.256Z,13.00
2019-05-20T07:33:31.811Z,13.00
2019-05-20T07:36:02.540Z,13.00
2019-05-20T07:38:33.318Z,13.10
2019-05-20T07:41:03.830Z,13.10
2019-05-20T07:43:34.591Z,13.00
2019-05-20T07:46:05.799Z,13.00
2019-05-20T07:48:37.954Z,13.00
2019-05-20T07:51:09.729Z,12.90
2019-05-20T07:53:40.499Z,12.80
2019-05-20T07:56:17.675Z,12.80
2019-05-20T07:58:58.184Z,12.80
2019-05-20T08:01:28.796Z,12.80
2019-05-20T08:03:59.270Z,12.80
2019-05-20T08:06:29.869Z,12.80
2019-05-20T08:09:01.478Z,12.80
2019-05-20T08:11:33.630Z,12.90
2019-05-20T08:14:04.214Z,12.90
2019-05-20T08:16:34.889Z,12.90
2019-05-20T08:19:05.661Z,13.00
2019-05-20T08:21:36.165Z,12.90
2019-05-20T08:24:06.646Z,12.90
2019-05-20T08:26:37.109Z,12.90
2019-05-20T08:29:07.812Z,12.90
2019-05-20T08:31:38.375Z,13.00
2019-05-20T08:34:08.857Z,13.00
2019-05-20T08:36:39.401Z,13.10
2019-05-20T08:39:10.110Z,13.10
2019-05-20T08:41:41.028Z,13.10
2019-05-20T08:44:11.559Z,13.10
2019-05-20T08:46:42.078Z,13.00
2019-05-20T08:49:12.888Z,13.10
2019-05-20T08:51:43.329Z,13.10
2019-05-20T08:54:13.822Z,13.10
2019-05-20T08:56:44.421Z,13.20
2019-05-20T08:59:14.883Z,13.30
2019-05-20T09:01:50.869Z,13.40
2019-05-20T09:04:35.844Z,13.50
2019-05-20T09:07:29.273Z,13.40
2019-05-20T09:10:01.770Z,13.20
2019-05-20T09:13:06.637Z,13.30
2019-05-20T09:16:07.630Z,13.40
2019-05-20T09:19:15.273Z,13.30
2019-05-20T09:21:51.106Z,13.40
2019-05-20T09:24:26.862Z,13.50
2019-05-20T09:27:18.542Z,13.50
2019-05-20T09:29:49.228Z,13.70
2019-05-20T09:35:39.462Z,14.00
2019-05-20T09:38:20.016Z,14.00
2019-05-20T09:40:48.671Z,13.90
2019-05-20T09:43:19.352Z,13.80
2019-05-20T09:46:05.550Z,13.70
2019-05-20T09:48:25.172Z,13.70
2019-05-20T09:50:59.368Z,13.70
2019-05-20T09:53:30.043Z,13.70
2019-05-20T09:56:00.779Z,13.80
2019-05-20T09:58:31.382Z,13.80
2019-05-20T10:01:02.038Z,13.80
2019-05-20T10:03:32.497Z,13.90
2019-05-20T10:06:03.171Z,13.80
2019-05-20T10:08:40.963Z,13.90
2019-05-20T10:11:06.114Z,14.00
2019-05-20T10:13:36.678Z,14.00
2019-05-20T10:16:07.868Z,14.20
2019-05-20T10:18:39.445Z,14.10
2019-05-20T10:21:10.762Z,14.10
2019-05-20T10:23:41.268Z,14.00
2019-05-20T10:26:11.797Z,13.90
2019-05-20T10:28:46.825Z,13.80
2019-05-20T10:31:14.479Z,13.70
2019-05-20T10:33:45.008Z,13.60
2019-05-20T10:36:15.650Z,13.50
2019-05-20T10:38:57.511Z,13.50
2019-05-20T10:41:19.102Z,13.40
2019-05-20T10:43:49.878Z,13.50
2019-05-20T10:46:22.526Z,13.50
2019-05-20T10:51:49.895Z,13.60
2019-05-20T10:54:20.638Z,13.70
2019-05-20T10:57:27.433Z,13.80
2019-05-20T10:59:59.913Z,13.80
2019-05-20T11:02:57.841Z,13.90
2019-05-20T11:05:43.977Z,13.90
2019-05-20T11:08:21.691Z,13.90
2019-05-20T11:10:57.243Z,14.00
2019-05-20T11:13:37.223Z,14.00
2019-05-20T11:16:14.131Z,14.10
2019-05-20T11:18:45.046Z,14.20
2019-05-20T11:21:23.392Z,14.30
2019-05-20T11:23:54.181Z,14.30
2019-05-20T11:26:24.605Z,14.20
2019-05-20T11:28:57.160Z,14.20
2019-05-20T11:31:27.864Z,14.10
2019-05-20T11:34:04.605Z,14.20
2019-05-20T11:36:35.143Z,14.20
2019-05-20T11:39:32.445Z,14.20
2019-05-20T11:41:59.740Z,14.30
2019-05-20T11:44:43.092Z,14.10
2019-05-20T11:47:15.503Z,14.10
2019-05-20T11:49:59.173Z,14.00
2019-05-20T11:52:32.735Z,14.00
2019-05-20T11:55:06.350Z,13.90
2019-05-20T11:58:14.489Z,13.90
2019-05-20T12:00:45.745Z,13.90
2019-05-20T12:03:38.196Z,13.80
2019-05-20T12:06:34.255Z,13.70
2019-05-20T12:09:08.004Z,13.70
2019-05-20T12:11:39.418Z,13.80
2019-05-20T12:14:09.964Z,13.70
2019-05-20T12:16:40.499Z,13.80
2019-05-20T12:19:38.447Z,13.80
2019-05-20T12:22:09.873Z,13.80
2019-05-20T12:24:40.708Z,14.00
2019-05-20T12:27:11.242Z,14.00
2019-05-20T12:29:42.087Z,13.90
2019-05-20T12:32:12.612Z,14.10
2019-05-20T12:34:43.545Z,14.10
2019-05-20T12:37:14.133Z,14.20
2019-05-20T12:39:46.574Z,14.20
2019-05-20T12:42:21.908Z,14.30
2019-05-20T12:44:52.373Z,14.40
2019-05-20T12:47:23.130Z,14.30
2019-05-20T12:49:53.632Z,14.40
2019-05-20T12:52:24.124Z,14.30
2019-05-20T12:55:07.010Z,14.20
2019-05-20T12:57:26.796Z,14.30
2019-05-20T13:00:04.190Z,14.30
2019-05-20T13:02:34.677Z,14.40
2019-05-20T13:05:12.455Z,14.40
2019-05-20T13:07:43.205Z,14.50
2019-05-20T13:10:28.825Z,14.50
2019-05-20T13:12:46.662Z,14.50
2019-05-20T13:15:26.968Z,14.50
2019-05-20T13:17:57.674Z,14.50
2019-05-20T13:20:28.227Z,14.40
2019-05-20T13:23:13.932Z,14.50
2019-05-20T13:25:44.071Z,14.60
2019-05-20T13:28:34.810Z,14.50
2019-05-20T13:31:07.195Z,14.50
2019-05-20T13:34:11.865Z,14.40
2019-05-20T13:36:42.670Z,14.40
2019-05-20T13:39:37.491Z,14.50
2019-05-20T13:42:35.472Z,14.60
2019-05-20T13:45:28.688Z,14.60
2019-05-20T13:48:24.233Z,14.60
2019-05-20T13:50:58.286Z,14.60
2019-05-20T13:53:28.800Z,14.60
2019-05-20T13:56:07.738Z,14.60
2019-05-20T13:58:38.413Z,14.60
2019-05-20T14:01:08.995Z,14.50
2019-05-20T14:03:39.513Z,14.50
2019-05-20T14:06:10.047Z,14.50
2019-05-20T14:08:41.493Z,14.40
2019-05-20T14:11:12.182Z,14.40
2019-05-20T14:13:43.983Z,14.40
2019-05-20T14:16:14.730Z,14.20
2019-05-20T14:18:45.291Z,14.20
2019-05-20T14:21:15.863Z,14.20
2019-05-20T14:23:46.363Z,14.20
2019-05-20T14:26:16.811Z,14.10
2019-05-20T14:28:47.344Z,14.20
2019-05-20T14:31:18.197Z,14.30
2019-05-20T14:33:50.108Z,14.30
2019-05-20T14:36:38.774Z,14.20
2019-05-20T14:38:53.569Z,13.90
2019-05-20T14:41:26.431Z,13.80
2019-05-20T14:44:41.023Z,13.80
2019-05-20T14:47:21.565Z,13.80
2019-05-20T14:49:52.047Z,13.90
2019-05-20T14:52:22.607Z,13.90
2019-05-20T14:54:53.219Z,13.90
2019-05-20T14:57:33.913Z,13.90
2019-05-20T15:00:05.819Z,13.90
2019-05-20T15:02:41.986Z,14.00
2019-05-20T15:05:12.945Z,13.90
2019-05-20T15:07:43.542Z,14.00
2019-05-20T15:10:15.328Z,13.90
2019-05-20T15:12:45.992Z,13.90
2019-05-20T15:15:16.520Z,13.90
2019-05-20T15:17:50.757Z,14.00
2019-05-20T15:20:27.251Z,14.00
2019-05-20T15:22:57.746Z,14.00
2019-05-20T15:25:32.892Z,14.20
2019-05-20T15:28:03.627Z,14.20
2019-05-20T15:30:45.357Z,14.20
2019-05-20T15:33:16.064Z,14.20
2019-05-20T15:35:46.667Z,14.10
2019-05-20T15:38:17.125Z,14.30
2019-05-20T15:40:47.645Z,14.20
2019-05-20T15:43:18.131Z,14.20
2019-05-20T15:45:54.334Z,14.30
2019-05-20T15:48:24.805Z,14.30
2019-05-20T15:50:55.273Z,14.20
2019-05-20T15:53:25.797Z,14.40
2019-05-20T15:55:56.297Z,14.50
2019-05-20T15:58:26.944Z,14.40
2019-05-20T16:01:01.134Z,14.50
2019-05-20T16:03:31.625Z,14.60
2019-05-20T16:06:02.150Z,14.50
2019-05-20T16:08:32.775Z,14.60
2019-05-20T16:11:06.669Z,14.50
2019-05-20T16:13:35.728Z,14.40
2019-05-20T16:16:13.254Z,14.40
2019-05-20T16:18:44.232Z,14.40
2019-05-20T16:21:18.270Z,14.30
2019-05-20T16:23:48.952Z,14.40
2019-05-20T16:26:19.519Z,14.40
2019-05-20T16:28:50.188Z,14.40
2019-05-20T16:31:20.773Z,14.50
2019-05-20T16:33:51.278Z,14.30
2019-05-20T16:36:21.781Z,14.20
2019-05-20T16:38:53.978Z,14.10
2019-05-20T16:41:24.478Z,14.00
2019-05-20T16:43:55.312Z,14.00
2019-05-20T16:46:25.835Z,13.80
2019-05-20T16:48:56.491Z,13.80
2019-05-20T16:51:27.078Z,13.70
2019-05-20T16:53:57.627Z,13.70
2019-05-20T16:56:28.228Z,13.60
2019-05-20T16:58:58.781Z,13.70
2019-05-20T17:01:29.381Z,13.80
2019-05-20T17:03:59.920Z,13.90
2019-05-20T17:06:30.805Z,13.80
2019-05-20T17:09:01.302Z,13.70
2019-05-20T17:11:31.789Z,13.70
2019-05-20T17:14:02.349Z,13.60
2019-05-20T17:16:32.826Z,13.30
2019-05-20T17:19:03.332Z,13.20
2019-05-20T17:21:33.883Z,13.20
2019-05-20T17:24:04.363Z,13.30
2019-05-20T17:26:34.919Z,13.30
2019-05-20T17:29:05.617Z,13.30
2019-05-20T17:31:36.161Z,13.30
2019-05-20T17:34:06.658Z,13.20
2019-05-20T17:36:37.166Z,13.30
2019-05-20T17:39:08.025Z,13.30
2019-05-20T17:41:38.533Z,13.20
2019-05-20T17:44:09.036Z,13.20
2019-05-20T17:46:39.614Z,13.10
2019-05-20T17:49:10.119Z,13.10
2019-05-20T17:51:43.273Z,13.10
2019-05-20T17:54:12.931Z,13.20
2019-05-20T17:56:43.462Z,13.20
2019-05-20T17:59:13.945Z,13.20
2019-05-20T18:01:44.411Z,13.10
2019-05-20T18:04:14.940Z,13.00
2019-05-20T18:06:45.444Z,12.90
2019-05-20T18:09:16.046Z,13.00
2019-05-20T18:11:46.540Z,13.00
2019-05-20T18:14:17.088Z,12.90
2019-05-20T18:16:47.642Z,12.90
2019-05-20T18:19:18.137Z,12.90
2019-05-20T18:21:48.705Z,12.80
2019-05-20T18:24:19.180Z,12.80
2019-05-20T18:26:49.664Z,12.70
2019-05-20T18:29:20.178Z,12.60
2019-05-20T18:31:50.702Z,12.60
2019-05-20T18:34:21.314Z,12.60
2019-05-20T18:36:51.769Z,12.60
2019-05-20T18:39:22.291Z,12.50
2019-05-20T18:41:52.975Z,12.40
2019-05-20T18:44:23.429Z,12.30
2019-05-20T18:46:54.015Z,12.30
2019-05-20T18:49:24.627Z,12.40
2019-05-20T18:51:55.099Z,12.30
2019-05-20T18:54:25.525Z,12.30
2019-05-20T18:56:56.043Z,12.30
2019-05-20T18:59:26.522Z,12.40
2019-05-20T19:02:04.986Z,12.40
2019-05-20T19:04:29.465Z,12.40
2019-05-20T19:07:00.092Z,12.30
2019-05-20T19:09:30.606Z,12.30
2019-05-20T19:12:01.115Z,12.30
2019-05-20T19:14:31.694Z,12.40
2019-05-20T19:17:02.256Z,12.30
2019-05-20T19:19:32.755Z,12.30
2019-05-20T19:22:03.287Z,12.30
2019-05-20T19:24:33.835Z,12.20
2019-05-20T19:27:05.418Z,12.20
2019-05-20T19:29:35.854Z,12.20
2019-05-20T19:32:06.733Z,12.20
2019-05-20T19:34:37.232Z,12.30
2019-05-20T19:37:07.746Z,12.20
2019-05-20T19:39:38.242Z,12.20
2019-05-20T19:42:08.759Z,12.20
2019-05-20T19:44:39.404Z,12.10
2019-05-20T19:47:09.839Z,12.10
2019-05-20T19:49:42.394Z,12.10
2019-05-20T19:52:12.641Z,12.10
2019-05-20T19:54:43.127Z,12.10
2019-05-20T19:57:13.705Z,12.20
2019-05-20T19:59:44.195Z,12.20
2019-05-20T20:02:17.485Z,12.10
2019-05-20T20:04:47.313Z,12.10
2019-05-20T20:07:17.982Z,12.00
2019-05-20T20:09:49.585Z,12.10
2019-05-20T20:12:20.459Z,12.10
2019-05-20T20:14:51.007Z,12.10
2019-05-20T20:17:21.735Z,12.10
2019-05-20T20:19:52.283Z,12.10
2019-05-20T20:22:22.771Z,12.00
2019-05-20T20:24:53.239Z,12.00
2019-05-20T20:27:23.758Z,12.00
2019-05-20T20:29:54.273Z,12.00
2019-05-20T20:32:37.426Z,12.00
2019-05-20T20:34:57.553Z,12.10
2019-05-20T20:37:28.078Z,12.20
2019-05-20T20:39:58.788Z,12.20
2019-05-20T20:42:29.823Z,12.20
2019-05-20T20:45:00.494Z,12.10
2019-05-20T20:47:41.155Z,12.10
2019-05-20T20:50:04.119Z,12.10
2019-05-20T20:52:34.940Z,12.00
2019-05-20T20:55:05.749Z,11.90
2019-05-20T20:57:36.209Z,12.00
2019-05-20T21:00:08.652Z,12.00
2019-05-20T21:02:52.149Z,11.90
2019-05-20T21:05:11.696Z,11.80
2019-05-20T21:07:42.322Z,11.80
2019-05-20T21:10:12.940Z,11.70
2019-05-20T21:12:43.391Z,11.70
2019-05-20T21:15:14.181Z,11.60
2019-05-20T21:17:44.965Z,11.60
2019-05-20T21:20:15.446Z,11.60
2019-05-20T21:22:45.950Z,11.70
2019-05-20T21:25:16.493Z,11.70
2019-05-20T21:27:46.962Z,11.80
2019-05-20T21:30:18.902Z,11.80
2019-05-20T21:32:49.397Z,11.80
2019-05-20T21:35:19.912Z,11.90
2019-05-20T21:37:50.396Z,11.90
2019-05-20T21:40:20.934Z,11.80
2019-05-20T21:42:51.445Z,11.70
2019-05-20T21:45:21.985Z,11.60
2019-05-20T21:47:52.658Z,11.50
2019-05-20T21:50:23.802Z,11.60
2019-05-20T21:52:54.620Z,11.50
2019-05-20T21:55:25.440Z,11.60
2019-05-20T21:57:56.619Z,11.60
2019-05-20T22:00:56.949Z,11.60
2019-05-20T22:03:28.238Z,11.70
2019-05-20T22:05:59.104Z,11.60
2019-05-20T22:08:29.855Z,11.60
2019-05-20T22:11:01.040Z,11.60
2019-05-20T22:13:31.781Z,11.60
2019-05-20T22:16:02.563Z,11.60
2019-05-20T22:18:33.337Z,11.60
2019-05-20T22:21:04.210Z,11.60
2019-05-20T22:23:46.588Z,11.60
2019-05-20T22:26:17.210Z,11.60
2019-05-20T22:28:47.836Z,11.60
2019-05-20T22:31:18.558Z,11.60
2019-05-20T22:33:49.255Z,11.60
2019-05-20T22:36:19.858Z,11.60
2019-05-20T22:38:50.453Z,11.50
2019-05-20T22:41:21.072Z,11.50
2019-05-20T22:43:51.777Z,11.50
2019-05-20T22:46:22.484Z,11.40
2019-05-20T22:48:53.078Z,11.50
2019-05-20T22:51:23.804Z,11.50
2019-05-20T22:53:54.470Z,11.50
2019-05-20T22:56:25.082Z,11.60
2019-05-20T22:58:55.805Z,11.60
2019-05-20T23:01:26.412Z,11.60
2019-05-20T23:03:57.188Z,11.60
2019-05-20T23:06:27.927Z,11.60
2019-05-20T23:08:58.662Z,11.60
2019-05-20T23:11:29.337Z,11.60
2019-05-20T23:14:00.006Z,11.50
2019-05-20T23:16:30.722Z,11.60
2019-05-20T23:19:01.372Z,11.60
2019-05-20T23:21:32.006Z,11.60
2019-05-20T23:24:02.668Z,11.60
2019-05-20T23:26:33.312Z,11.60
2019-05-20T23:29:03.955Z,11.70
2019-05-20T23:31:34.622Z,11.70
2019-05-20T23:34:12.736Z,11.70
2019-05-20T23:36:37.661Z,11.70
2019-05-20T23:39:08.359Z,11.70
2019-05-20T23:41:38.976Z,11.70
2019-05-20T23:44:09.644Z,11.70
2019-05-20T23:46:40.278Z,11.70
2019-05-20T23:49:10.985Z,11.70
2019-05-20T23:51:41.669Z,11.80
2019-05-20T23:54:12.610Z,11.80
2019-05-20T23:56:43.379Z,11.80
2019-05-20T23:59:13.958Z,11.80
